createdAt,value
2017-08-25T00:00:31.197Z,100477.41
2017-08-25T00:02:59.141Z,100478.94
2017-08-25T00:05:26.854Z,100480.81
2017-08-25T00:07:54.795Z,100480.59
2017-08-25T00:10:22.544Z,100480.66
2017-08-25T00:12:50.531Z,100485.56
2017-08-25T00:15:18.421Z,100485.33
2017-08-25T00:17:46.162Z,100481.81
2017-08-25T00:20:13.947Z,100479.55
2017-08-25T00:22:41.619Z,100469.61
2017-08-25T00:25:09.275Z,100469.53
2017-08-25T00:27:37.348Z,100472.95
2017-08-25T00:30:05.077Z,100472.34
2017-08-25T00:32:32.943Z,100474.85
2017-08-25T00:35:00.753Z,100474.70
2017-08-25T00:37:28.476Z,100476.19
2017-08-25T00:39:56.441Z,100476.52
2017-08-25T00:42:24.347Z,100485.30
2017-08-25T00:44:52.053Z,100475.98
2017-08-25T00:47:19.880Z,100478.30
2017-08-25T00:49:47.884Z,100475.54
2017-08-25T00:52:15.607Z,100475.43
2017-08-25T00:54:43.442Z,100478.27
2017-08-25T00:57:11.257Z,100483.09
2017-08-25T00:59:39.102Z,100482.41
2017-08-25T01:02:06.721Z,100479.12
2017-08-25T01:04:34.586Z,100487.62
2017-08-25T01:07:02.425Z,100480.00
2017-08-25T01:09:30.419Z,100478.88
2017-08-25T01:11:58.187Z,100480.53
2017-08-25T01:14:26.150Z,100481.19
2017-08-25T01:16:54.268Z,100476.94
2017-08-25T01:19:22.212Z,100479.22
2017-08-25T01:21:50.201Z,100481.61
2017-08-25T01:24:17.877Z,100474.98
2017-08-25T01:26:45.734Z,100479.13
2017-08-25T01:29:13.456Z,100481.71
2017-08-25T01:31:41.481Z,100479.77
2017-08-25T01:34:09.536Z,100482.22
2017-08-25T01:36:37.213Z,100483.48
2017-08-25T01:39:05.219Z,100486.45
2017-08-25T01:41:33.180Z,100488.34
2017-08-25T01:44:01.000Z,100481.30
2017-08-25T01:46:28.887Z,100480.89
2017-08-25T01:48:56.754Z,100485.73
2017-08-25T01:51:24.606Z,100484.69
2017-08-25T01:53:52.399Z,100486.83
2017-08-25T01:56:20.147Z,100485.17
2017-08-25T01:58:47.818Z,100490.12
2017-08-25T02:01:15.944Z,100491.47
2017-08-25T02:03:43.937Z,100496.20
2017-08-25T02:06:11.682Z,100495.98
2017-08-25T02:08:39.684Z,100496.60
2017-08-25T02:11:07.538Z,100502.39
2017-08-25T02:13:35.242Z,100501.67
2017-08-25T02:16:03.249Z,100506.75
2017-08-25T02:18:31.080Z,100502.19
2017-08-25T02:20:58.833Z,100498.54
2017-08-25T02:23:26.549Z,100501.80
2017-08-25T02:25:54.342Z,100508.59
2017-08-25T02:28:22.179Z,100503.16
2017-08-25T02:30:49.999Z,100508.28
2017-08-25T02:33:17.941Z,100509.84
2017-08-25T02:35:45.659Z,100508.08
2017-08-25T02:38:13.479Z,100511.81
2017-08-25T02:40:41.468Z,100510.22
2017-08-25T02:43:09.283Z,100512.64
2017-08-25T02:45:37.108Z,100512.28
2017-08-25T02:48:05.017Z,100509.74
2017-08-25T02:50:32.808Z,100505.07
2017-08-25T02:53:00.644Z,100509.65
2017-08-25T02:55:28.517Z,100512.85
2017-08-25T02:57:56.260Z,100513.96
2017-08-25T03:00:24.281Z,100513.22
2017-08-25T03:02:52.354Z,100512.30
2017-08-25T03:05:20.019Z,100511.35
2017-08-25T03:07:47.849Z,100518.75
2017-08-25T03:10:15.940Z,100515.09
2017-08-25T03:12:43.782Z,100522.29
2017-08-25T03:15:11.687Z,100520.06
2017-08-25T03:17:39.553Z,100520.66
2017-08-25T03:20:07.534Z,100529.34
2017-08-25T03:22:35.402Z,100536.49
2017-08-25T03:25:03.150Z,100531.89
2017-08-25T03:27:31.010Z,100540.03
2017-08-25T03:29:58.753Z,100537.91
2017-08-25T03:32:26.765Z,100533.58
2017-08-25T03:34:54.604Z,100535.08
2017-08-25T03:37:22.354Z,100533.84
2017-08-25T03:39:50.357Z,100531.70
2017-08-25T03:42:18.090Z,100537.47
2017-08-25T03:44:46.092Z,100537.70
2017-08-25T03:47:13.959Z,100534.09
2017-08-25T03:49:41.809Z,100531.23
2017-08-25T03:52:09.604Z,100535.06
2017-08-25T03:54:37.521Z,100534.95
2017-08-25T03:57:05.410Z,100541.22
2017-08-25T03:59:33.277Z,100536.17
2017-08-25T04:02:01.157Z,100541.00
2017-08-25T04:04:28.825Z,100535.56
2017-08-25T04:06:56.481Z,100534.19
2017-08-25T04:09:24.361Z,100529.02
2017-08-25T04:11:52.313Z,100533.13
2017-08-25T04:14:20.130Z,100529.31
2017-08-25T04:16:47.952Z,100533.11
2017-08-25T04:19:15.663Z,100532.30
2017-08-25T04:21:43.483Z,100537.63
2017-08-25T04:24:11.551Z,100542.73
2017-08-25T04:26:39.386Z,100549.41
2017-08-25T04:29:07.129Z,100540.83
2017-08-25T04:31:34.996Z,100540.20
2017-08-25T04:34:03.019Z,100546.94
2017-08-25T04:36:30.730Z,100541.73
2017-08-25T04:38:58.692Z,100552.17
2017-08-25T04:41:26.425Z,100553.18
2017-08-25T04:43:54.077Z,100547.48
2017-08-25T04:46:22.171Z,100548.02
2017-08-25T04:48:49.810Z,100554.66
2017-08-25T04:51:17.656Z,100548.73
2017-08-25T04:53:45.497Z,100553.69
2017-08-25T04:56:13.411Z,100553.09
2017-08-25T04:58:41.133Z,100551.58
2017-08-25T05:01:08.940Z,100550.22
2017-08-25T05:03:36.666Z,100550.86
2017-08-25T05:06:05.133Z,100550.85
2017-08-25T05:08:33.124Z,100553.09
2017-08-25T05:11:00.867Z,100553.04
2017-08-25T05:13:28.891Z,100548.95
2017-08-25T05:15:56.963Z,100538.87
2017-08-25T05:18:24.816Z,100540.45
2017-08-25T05:20:52.413Z,100539.34
2017-08-25T05:23:20.550Z,100540.58
2017-08-25T05:25:48.417Z,100533.56
2017-08-25T05:28:16.285Z,100528.46
2017-08-25T05:30:44.350Z,100526.57
2017-08-25T05:33:12.237Z,100522.92
2017-08-25T05:35:39.893Z,100522.33
2017-08-25T05:38:07.954Z,100522.98
2017-08-25T05:40:35.830Z,100520.02
2017-08-25T05:43:03.688Z,100524.80
2017-08-25T05:45:31.751Z,100526.11
2017-08-25T05:47:59.493Z,100520.06
2017-08-25T05:50:27.304Z,100518.50
2017-08-25T05:52:55.377Z,100516.00
2017-08-25T05:55:23.038Z,100510.08
2017-08-25T05:57:50.699Z,100507.23
2017-08-25T06:00:18.772Z,100510.80
2017-08-25T06:02:46.625Z,100511.92
2017-08-25T06:05:14.492Z,100514.92
2017-08-25T06:07:42.557Z,100508.45
2017-08-25T06:10:10.427Z,100514.31
2017-08-25T06:12:38.220Z,100523.47
2017-08-25T06:15:06.179Z,100513.84
2017-08-25T06:17:33.904Z,100504.56
2017-08-25T06:20:01.712Z,100507.48
2017-08-25T06:22:29.783Z,100513.91
2017-08-25T06:24:57.629Z,100517.55
2017-08-25T06:27:25.494Z,100517.44
2017-08-25T06:29:53.364Z,100523.00
2017-08-25T06:32:21.357Z,100519.91
2017-08-25T06:34:49.175Z,100523.43
2017-08-25T06:37:17.139Z,100533.75
2017-08-25T06:39:44.847Z,100533.58
2017-08-25T06:42:12.578Z,100523.86
2017-08-25T06:44:40.445Z,100524.41
2017-08-25T06:47:08.449Z,100534.27
2017-08-25T06:49:36.110Z,100539.02
2017-08-25T06:52:04.118Z,100541.61
2017-08-25T06:54:31.914Z,100541.91
2017-08-25T06:56:59.756Z,100544.64
2017-08-25T06:59:27.648Z,100538.20
2017-08-25T07:01:55.639Z,100528.08
2017-08-25T07:04:23.392Z,100525.48
2017-08-25T07:06:51.322Z,100525.98
2017-08-25T07:09:19.168Z,100526.61
2017-08-25T07:11:47.125Z,100530.56
2017-08-25T07:14:15.103Z,100530.92
2017-08-25T07:16:43.056Z,100538.98
2017-08-25T07:19:10.719Z,100534.91
2017-08-25T07:21:39.599Z,100531.39
2017-08-25T07:24:07.272Z,100531.44
2017-08-25T07:26:35.313Z,100533.14
2017-08-25T07:29:03.416Z,100532.24
2017-08-25T07:31:31.270Z,100531.22
2017-08-25T07:33:59.136Z,100533.73
2017-08-25T07:36:27.205Z,100525.01
2017-08-25T07:38:54.883Z,100523.91
2017-08-25T07:41:22.591Z,100525.13
2017-08-25T07:43:50.412Z,100522.89
2017-08-25T07:46:18.247Z,100523.00
2017-08-25T07:48:46.116Z,100519.63
2017-08-25T07:51:13.983Z,100522.76
2017-08-25T07:53:41.879Z,100521.47
2017-08-25T07:56:09.598Z,100519.18
2017-08-25T07:58:37.617Z,100519.27
2017-08-25T08:01:05.454Z,100515.11
2017-08-25T08:03:33.321Z,100512.00
2017-08-25T08:06:00.995Z,100513.30
2017-08-25T08:08:28.732Z,100505.25
2017-08-25T08:10:56.365Z,100501.05
2017-08-25T08:13:24.338Z,100498.00
2017-08-25T08:15:52.064Z,100499.09
2017-08-25T08:18:19.777Z,100488.72
2017-08-25T08:20:47.741Z,100485.09
2017-08-25T08:23:15.563Z,100488.09
2017-08-25T08:25:43.373Z,100486.92
2017-08-25T08:28:11.345Z,100488.42
2017-08-25T08:30:39.272Z,100483.70
2017-08-25T08:33:07.005Z,100480.41
2017-08-25T08:35:34.971Z,100481.20
2017-08-25T08:38:02.768Z,100480.92
2017-08-25T08:40:30.583Z,100478.16
2017-08-25T08:42:58.277Z,100475.11
2017-08-25T08:45:26.268Z,100481.25
2017-08-25T08:47:54.188Z,100478.91
2017-08-25T08:50:22.052Z,100479.72
2017-08-25T08:52:50.019Z,100475.08
2017-08-25T08:55:18.510Z,100477.24
2017-08-25T08:57:46.603Z,100478.99
2017-08-25T09:00:14.470Z,100482.72
2017-08-25T09:02:42.337Z,100479.70
2017-08-25T09:05:10.281Z,100480.59
2017-08-25T09:07:38.273Z,100479.41
2017-08-25T09:10:06.140Z,100480.83
2017-08-25T09:12:34.183Z,100476.20
2017-08-25T09:15:02.106Z,100473.34
2017-08-25T09:17:29.769Z,100476.11
2017-08-25T09:19:57.628Z,100469.36
2017-08-25T09:22:25.354Z,100466.78
2017-08-25T09:24:53.163Z,100459.67
2017-08-25T09:27:20.986Z,100462.97
2017-08-25T09:29:48.704Z,100463.53
2017-08-25T09:32:16.423Z,100468.20
2017-08-25T09:34:44.218Z,100466.11
2017-08-25T09:37:12.087Z,100465.66
2017-08-25T09:39:39.801Z,100460.60
2017-08-25T09:42:07.792Z,100460.59
2017-08-25T09:44:35.536Z,100460.37
2017-08-25T09:47:03.427Z,100462.17
2017-08-25T09:49:31.209Z,100456.26
2017-08-25T09:51:59.060Z,100453.87
2017-08-25T09:54:26.927Z,100449.55
2017-08-25T09:56:55.022Z,100454.92
2017-08-25T09:59:23.063Z,100444.91
2017-08-25T10:01:50.756Z,100450.05
2017-08-25T10:04:18.747Z,100441.07
2017-08-25T10:06:46.594Z,100439.74
2017-08-25T10:09:14.558Z,100449.15
2017-08-25T10:11:42.634Z,100443.05
2017-08-25T10:14:10.295Z,100439.10
2017-08-25T10:16:37.951Z,100445.30
2017-08-25T10:19:05.952Z,100434.80
2017-08-25T10:21:33.798Z,100434.09
2017-08-25T10:24:01.615Z,100433.96
2017-08-25T10:26:29.603Z,100433.84
2017-08-25T10:28:57.470Z,100427.31
2017-08-25T10:31:25.477Z,100427.37
2017-08-25T10:33:53.636Z,100425.42
2017-08-25T10:36:33.182Z,100423.77
2017-08-25T10:39:12.767Z,100419.77
2017-08-25T10:41:52.332Z,100423.92
2017-08-25T10:44:32.046Z,100418.02
2017-08-25T10:47:00.041Z,100420.88
2017-08-25T10:49:27.907Z,100427.81
2017-08-25T10:51:55.770Z,100419.97
2017-08-25T10:54:23.478Z,100421.13
2017-08-25T10:56:51.334Z,100424.52
2017-08-25T10:59:19.279Z,100427.84
2017-08-25T11:01:47.280Z,100423.17
2017-08-25T11:04:15.147Z,100422.22
2017-08-25T11:06:42.932Z,100424.23
2017-08-25T11:09:10.884Z,100413.03
2017-08-25T11:11:39.773Z,100417.63
2017-08-25T11:14:07.843Z,100415.94
2017-08-25T11:16:35.502Z,100417.66
2017-08-25T11:19:03.375Z,100406.53
2017-08-25T11:21:31.446Z,100408.19
2017-08-25T11:23:59.156Z,100409.11
2017-08-25T11:26:27.122Z,100408.88
2017-08-25T11:28:54.870Z,100402.60
2017-08-25T11:31:22.901Z,100387.80
2017-08-25T11:33:50.624Z,100386.53
2017-08-25T11:36:18.647Z,100385.31
2017-08-25T11:38:46.358Z,100377.44
2017-08-25T11:41:14.379Z,100382.66
2017-08-25T11:43:42.293Z,100373.80
2017-08-25T11:46:10.319Z,100387.16
2017-08-25T11:48:38.024Z,100379.08
2017-08-25T11:51:05.919Z,100371.77
2017-08-25T11:53:33.756Z,100367.91
2017-08-25T11:56:01.788Z,100365.83
2017-08-25T11:58:29.821Z,100369.70
2017-08-25T12:00:57.510Z,100366.67
2017-08-25T12:03:25.356Z,100360.15
2017-08-25T12:05:53.042Z,100370.56
2017-08-25T12:08:20.766Z,100363.41
2017-08-25T12:10:48.578Z,100354.09
2017-08-25T12:13:16.446Z,100345.00
2017-08-25T12:15:44.174Z,100345.37
2017-08-25T12:18:12.085Z,100339.33
2017-08-25T12:20:39.906Z,100340.32
2017-08-25T12:23:07.870Z,100344.02
2017-08-25T12:25:35.692Z,100346.97
2017-08-25T12:28:03.604Z,100340.62
2017-08-25T12:30:31.349Z,100339.29
2017-08-25T12:32:59.365Z,100339.13
2017-08-25T12:35:27.284Z,100330.39
2017-08-25T12:37:54.975Z,100331.42
2017-08-25T12:40:22.982Z,100333.70
2017-08-25T12:42:51.034Z,100326.09
2017-08-25T12:45:18.921Z,100337.70
2017-08-25T12:47:46.644Z,100329.37
2017-08-25T12:50:14.636Z,100332.17
2017-08-25T12:52:42.503Z,100335.20
2017-08-25T12:55:10.249Z,100328.09
2017-08-25T12:57:38.251Z,100324.28
2017-08-25T13:00:06.106Z,100332.88
2017-08-25T13:02:33.773Z,100333.28
2017-08-25T13:05:01.844Z,100330.54
2017-08-25T13:07:29.708Z,100332.25
2017-08-25T13:09:57.575Z,100328.97
2017-08-25T13:12:25.657Z,100326.83
2017-08-25T13:14:53.514Z,100322.05
2017-08-25T13:17:21.188Z,100323.48
2017-08-25T13:19:49.243Z,100326.23
2017-08-25T13:22:16.918Z,100322.25
2017-08-25T13:24:44.520Z,100319.93
2017-08-25T13:27:12.451Z,100318.87
2017-08-25T13:29:40.282Z,100319.26
2017-08-25T13:32:08.028Z,100321.03
2017-08-25T13:34:36.049Z,100316.38
2017-08-25T13:37:04.249Z,100311.53
2017-08-25T13:39:32.081Z,100310.48
2017-08-25T13:41:59.852Z,100311.23
2017-08-25T13:44:27.518Z,100310.27
2017-08-25T13:46:55.361Z,100309.55
2017-08-25T13:49:23.253Z,100303.27
2017-08-25T13:51:50.849Z,100311.39
2017-08-25T13:54:18.778Z,100301.63
2017-08-25T13:56:46.799Z,100307.55
2017-08-25T13:59:14.517Z,100306.41
2017-08-25T14:01:42.174Z,100297.95
2017-08-25T14:04:10.230Z,100296.78
2017-08-25T14:06:38.095Z,100296.55
2017-08-25T14:09:05.780Z,100297.70
2017-08-25T14:11:33.442Z,100294.77
2017-08-25T14:14:01.306Z,100296.22
2017-08-25T14:16:28.972Z,100290.98
2017-08-25T14:18:57.010Z,100293.56
2017-08-25T14:21:24.699Z,100292.88
2017-08-25T14:23:52.360Z,100289.93
2017-08-25T14:26:20.439Z,100279.28
2017-08-25T14:28:48.273Z,100284.97
2017-08-25T14:31:15.962Z,100285.02
2017-08-25T14:33:44.035Z,100280.61
2017-08-25T14:36:11.690Z,100284.85
2017-08-25T14:38:39.568Z,100283.32
2017-08-25T14:41:07.644Z,100281.82
2017-08-25T14:43:35.482Z,100277.64
2017-08-25T14:46:03.350Z,100272.77
2017-08-25T14:48:31.217Z,100274.55
2017-08-25T14:50:59.085Z,100277.17
2017-08-25T14:53:26.952Z,100280.70
2017-08-25T14:55:54.818Z,100272.53
2017-08-25T14:58:22.685Z,100272.94
2017-08-25T15:00:50.798Z,100271.37
2017-08-25T15:03:18.526Z,100269.34
2017-08-25T15:05:46.515Z,100265.67
2017-08-25T15:08:14.380Z,100262.50
2017-08-25T15:10:42.101Z,100266.53
2017-08-25T15:13:09.968Z,100262.52
2017-08-25T15:15:37.931Z,100255.55
2017-08-25T15:18:04.209Z,100249.44
2017-08-25T15:20:30.814Z,100246.48
2017-08-25T15:22:57.488Z,100257.31
2017-08-25T15:25:24.103Z,100253.69
2017-08-25T15:27:50.765Z,100249.73
2017-08-25T15:30:17.401Z,100252.20
2017-08-25T15:32:44.028Z,100247.98
2017-08-25T15:35:10.524Z,100245.16
2017-08-25T15:37:37.316Z,100247.67
2017-08-25T15:40:03.808Z,100245.08
2017-08-25T15:42:30.178Z,100245.77
2017-08-25T15:44:56.503Z,100248.80
2017-08-25T15:47:22.804Z,100244.18
2017-08-25T15:49:49.479Z,100246.87
2017-08-25T15:52:16.069Z,100240.04
2017-08-25T15:54:42.542Z,100239.83
2017-08-25T15:57:08.879Z,100243.57
2017-08-25T15:59:35.473Z,100247.64
2017-08-25T16:02:01.915Z,100240.58
2017-08-25T16:04:28.425Z,100246.50
2017-08-25T16:06:55.000Z,100240.75
2017-08-25T16:09:21.514Z,100248.14
2017-08-25T16:11:48.203Z,100243.66
2017-08-25T16:14:14.626Z,100244.59
2017-08-25T16:16:41.070Z,100247.32
2017-08-25T16:19:07.709Z,100246.80
2017-08-25T16:21:34.348Z,100243.61
2017-08-25T16:24:00.969Z,100246.09
2017-08-25T16:26:27.417Z,100252.05
2017-08-25T16:28:53.997Z,100250.44
2017-08-25T16:31:20.690Z,100251.02
2017-08-25T16:33:47.016Z,100251.98
2017-08-25T16:36:13.604Z,100249.06
2017-08-25T16:38:39.985Z,100250.73
2017-08-25T16:41:06.615Z,100247.14
2017-08-25T16:43:33.063Z,100249.84
2017-08-25T16:45:59.671Z,100250.58
2017-08-25T16:48:26.340Z,100257.75
2017-08-25T16:50:52.974Z,100257.94
2017-08-25T16:53:19.597Z,100263.16
2017-08-25T16:55:46.256Z,100263.17
2017-08-25T16:58:12.893Z,100265.23
2017-08-25T17:00:39.172Z,100268.41
2017-08-25T17:03:05.624Z,100260.44
2017-08-25T17:05:32.159Z,100267.37
2017-08-25T17:07:58.627Z,100267.97
2017-08-25T17:10:25.053Z,100271.31
2017-08-25T17:12:51.698Z,100268.58
2017-08-25T17:15:18.128Z,100274.59
2017-08-25T17:17:44.743Z,100269.92
2017-08-25T17:20:11.197Z,100274.45
2017-08-25T17:22:37.621Z,100281.67
2017-08-25T17:25:04.244Z,100273.16
2017-08-25T17:27:30.770Z,100263.25
2017-08-25T17:29:57.125Z,100284.16
2017-08-25T17:32:23.569Z,100283.91
2017-08-25T17:34:50.002Z,100288.56
2017-08-25T17:37:16.289Z,100288.73
2017-08-25T17:39:43.280Z,100284.26
2017-08-25T17:42:09.702Z,100290.98
2017-08-25T17:44:36.355Z,100290.00
2017-08-25T17:47:02.776Z,100292.05
2017-08-25T17:49:29.215Z,100290.55
2017-08-25T17:51:55.509Z,100298.72
2017-08-25T17:54:22.077Z,100304.17
2017-08-25T17:56:48.924Z,100308.66
2017-08-25T17:59:15.567Z,100308.50
2017-08-25T18:01:42.178Z,100318.98
2017-08-25T18:04:08.630Z,100315.56
2017-08-25T18:06:35.068Z,100320.45
2017-08-25T18:09:01.537Z,100326.53
2017-08-25T18:11:27.972Z,100324.27
2017-08-25T18:13:54.292Z,100330.34
2017-08-25T18:16:20.577Z,100324.45
2017-08-25T18:18:46.913Z,100330.82
2017-08-25T18:21:13.422Z,100328.74
2017-08-25T18:23:39.707Z,100332.30
2017-08-25T18:26:06.332Z,100330.99
2017-08-25T18:28:32.795Z,100334.39
2017-08-25T18:30:59.200Z,100339.69
2017-08-25T18:33:25.603Z,100346.80
2017-08-25T18:35:52.062Z,100340.43
2017-08-25T18:38:18.691Z,100342.59
2017-08-25T18:40:45.308Z,100350.08
2017-08-25T18:43:11.977Z,100342.67
2017-08-25T18:45:38.252Z,100353.81
2017-08-25T18:48:04.587Z,100354.29
2017-08-25T18:50:30.874Z,100357.56
2017-08-25T18:52:57.301Z,100358.83
2017-08-25T18:55:23.640Z,100365.86
2017-08-25T18:57:50.126Z,100362.86
2017-08-25T19:00:16.611Z,100370.67
2017-08-25T19:02:43.041Z,100371.96
2017-08-25T19:05:09.655Z,100374.88
2017-08-25T19:07:36.108Z,100380.11
2017-08-25T19:10:02.539Z,100380.52
2017-08-25T19:12:28.973Z,100379.77
2017-08-25T19:14:55.261Z,100386.78
2017-08-25T19:17:21.813Z,100387.52
2017-08-25T19:19:48.455Z,100388.27
2017-08-25T19:22:14.891Z,100392.30
2017-08-25T19:24:41.345Z,100392.75
2017-08-25T19:27:07.781Z,100396.07
2017-08-25T19:29:34.395Z,100398.61
2017-08-25T19:32:00.921Z,100401.78
2017-08-25T19:34:27.360Z,100392.91
2017-08-25T19:36:53.870Z,100401.22
2017-08-25T19:39:20.366Z,100400.19
2017-08-25T19:41:46.998Z,100401.56
2017-08-25T19:44:13.595Z,100406.23
2017-08-25T19:46:40.064Z,100412.81
2017-08-25T19:49:06.506Z,100404.66
2017-08-25T19:51:33.005Z,100404.09
2017-08-25T19:53:59.563Z,100408.03
2017-08-25T19:56:26.060Z,100409.83
2017-08-25T19:58:52.383Z,100411.18
2017-08-25T20:01:18.718Z,100412.51
2017-08-25T20:03:45.057Z,100409.04
2017-08-25T20:06:11.376Z,100409.41
2017-08-25T20:08:37.671Z,100417.78
2017-08-25T20:11:04.054Z,100415.75
2017-08-25T20:13:30.347Z,100413.33
2017-08-25T20:15:56.652Z,100409.06
2017-08-25T20:18:22.987Z,100421.82
2017-08-25T20:20:49.477Z,100412.61
2017-08-25T20:23:15.925Z,100416.06
2017-08-25T20:25:42.295Z,100411.54
2017-08-25T20:28:08.818Z,100404.38
2017-08-25T20:30:35.444Z,100404.80
2017-08-25T20:33:01.887Z,100407.03
2017-08-25T20:35:28.317Z,100412.50
2017-08-25T20:37:54.822Z,100415.69
2017-08-25T20:40:21.398Z,100411.59
2017-08-25T20:42:47.679Z,100413.77
2017-08-25T20:45:14.875Z,100410.11
2017-08-25T20:47:41.341Z,100414.11
2017-08-25T20:50:07.933Z,100413.53
2017-08-25T20:52:34.380Z,100413.45
2017-08-25T20:55:01.019Z,100411.27
2017-08-25T20:57:27.632Z,100408.95
2017-08-25T20:59:54.298Z,100407.06
2017-08-25T21:02:20.930Z,100405.06
2017-08-25T21:04:47.532Z,100405.84
2017-08-25T21:07:14.230Z,100405.17
2017-08-25T21:09:40.662Z,100412.52
2017-08-25T21:12:07.134Z,100410.45
2017-08-25T21:14:33.423Z,100409.87
2017-08-25T21:16:59.839Z,100405.30
2017-08-25T21:19:26.116Z,100411.64
2017-08-25T21:21:52.707Z,100414.70
2017-08-25T21:24:19.138Z,100416.27
2017-08-25T21:26:45.611Z,100410.64
2017-08-25T21:29:11.995Z,100409.08
2017-08-25T21:31:38.747Z,100410.62
2017-08-25T21:34:05.279Z,100411.45
2017-08-25T21:36:31.903Z,100411.38
2017-08-25T21:38:58.348Z,100411.23
2017-08-25T21:41:24.966Z,100416.37
2017-08-25T21:43:51.632Z,100416.31
2017-08-25T21:46:18.251Z,100422.28
2017-08-25T21:48:44.732Z,100426.59
2017-08-25T21:51:11.130Z,100427.39
2017-08-25T21:53:37.723Z,100417.16
2017-08-25T21:56:04.311Z,100411.73
2017-08-25T21:58:30.905Z,100414.36
2017-08-25T22:00:57.431Z,100417.66
2017-08-25T22:03:23.869Z,100412.72
2017-08-25T22:05:50.172Z,100416.96
2017-08-25T22:08:16.548Z,100417.70
2017-08-25T22:10:42.892Z,100420.78
2017-08-25T22:13:09.162Z,100422.49
2017-08-25T22:15:35.572Z,100420.80
2017-08-25T22:18:01.874Z,100423.08
2017-08-25T22:20:28.433Z,100424.89
2017-08-25T22:22:55.480Z,100418.59
2017-08-25T22:25:21.820Z,100423.46
2017-08-25T22:27:48.313Z,100423.52
2017-08-25T22:30:14.952Z,100428.24
2017-08-25T22:32:41.403Z,100429.98
2017-08-25T22:35:07.852Z,100433.47
2017-08-25T22:37:34.184Z,100429.67
2017-08-25T22:40:00.669Z,100426.66
2017-08-25T22:42:26.959Z,100423.28
2017-08-25T22:44:53.584Z,100422.88
2017-08-25T22:47:19.861Z,100413.59
2017-08-25T22:49:46.246Z,100418.48
2017-08-25T22:52:12.887Z,100412.31
2017-08-25T22:54:39.497Z,100410.42
2017-08-25T22:57:05.941Z,100415.73
2017-08-25T22:59:32.431Z,100425.06
2017-08-25T23:01:58.880Z,100421.04
2017-08-25T23:04:25.165Z,100410.69
2017-08-25T23:06:51.861Z,100414.62
2017-08-25T23:09:18.531Z,100415.02
2017-08-25T23:11:44.952Z,100414.38
2017-08-25T23:14:11.556Z,100411.16
2017-08-25T23:16:38.225Z,100409.35
2017-08-25T23:19:04.674Z,100404.54
2017-08-25T23:21:31.108Z,100407.44
2017-08-25T23:23:57.536Z,100399.13
2017-08-25T23:26:23.980Z,100397.83
2017-08-25T23:28:50.336Z,100403.23
2017-08-25T23:31:16.840Z,100398.78
2017-08-25T23:33:43.263Z,100401.86
2017-08-25T23:36:09.863Z,100395.05
2017-08-25T23:38:36.337Z,100403.08
2017-08-25T23:41:02.820Z,100398.28
2017-08-25T23:43:29.361Z,100396.45
2017-08-25T23:45:55.690Z,100390.48
2017-08-25T23:48:22.285Z,100386.69
2017-08-25T23:50:48.708Z,100398.50
2017-08-25T23:53:15.152Z,100395.77
2017-08-25T23:55:41.586Z,100399.82
2017-08-25T23:58:08.012Z,100397.06
